ไทเป, ไต้หวัน

07:35 PM CST วัน ธันวาคม 03, 2016 (GMT +0800)
ITAIPEIT2 | | Change Station

Elev 30 ft 25.03 °N, 121.53 °E | Updated 37 seconds ago

มีเมฆคลุมไปทั่ว
มีเมฆคลุมไปทั่ว
71.4 ฟาเรนไฮน์
Feels Like 76 ฟาเรนไฮน์
N
5.0
ลม ความผันแปร ลม from ทางทิศตะวันออกเฉียงเหนือ
Gusts 16.0 mph

วันนี้
High -- | Low -- ฟาเรนไฮน์
--% Chance of Precip.
Yesterday
High -- | Low -- ฟาเรนไฮน์
Precip. -- นิ้ว
ความดัน 30.12 นิ้ว
ทัศนวิสัย 6.2 ไมล์
เมฆ Few 1200 ft
มีเมฆคลุมเป็นส่วนใหญ่ 2500 ft
มีเมฆคลุมเป็นส่วนใหญ่ 4500 ft
ดัชนีความร้อน 76 ฟาเรนไฮน์
อุณหภูมิที่อากาศอาจจับตัวเป็นหยาดน้ำค้าง 58 ฟาเรนไฮน์
ความชื้น 62%
Rainfall 0.00 นิ้ว
Snow Depth Not available.
6:23 AM 5:04 PM
เดือนเสี้ยว, 14% visible
METAR RCSS 031100Z 10013KT 9999 -DZ FEW012 BKN025 BKN045 22/19 Q1020 NOSIG RMK A3012
ความดัน 30.12 นิ้ว
ทัศนวิสัย 6.2 ไมล์
เมฆ Few 1200 ft
มีเมฆคลุมเป็นส่วนใหญ่ 2500 ft
มีเมฆคลุมเป็นส่วนใหญ่ 4500 ft
ดัชนีความร้อน 76 ฟาเรนไฮน์
อุณหภูมิที่อากาศอาจจับตัวเป็นหยาดน้ำค้าง 58 ฟาเรนไฮน์
ความชื้น 62%
Rainfall 0.00 นิ้ว
Snow Depth Not available.
6:23 AM 5:04 PM
เดือนเสี้ยว, 14% visible
METAR RCSS 031100Z 10013KT 9999 -DZ FEW012 BKN025 BKN045 22/19 Q1020 NOSIG RMK A3012

10-Day Weather Forecast

No radar image for this location.
×

Almanac

ดาราศาสตร์

Dec. 03, 2016 Rise Set
Actual Time
Civil Twilight
Nautical Twilight
Astronomical Twilight
Moon
Length Of Visible Light
ความยาวของวัน
Tomorrow will be .
, % of the Moon is Illuminated

Today's Extremes

Country Highs Country Lows

Community

WunderPhotos

Upload Photos

1,955,431 photos uploaded!

WunderBlog® & News

Nearby

Air Quality

  Air Quality AQ Index Pollutant
Not available.

Snow Depth

Station Depth Elevation

Earthquake Activity

City Distance Mag. Time & Date
Minimum magnitude displayed is 2.5.

Coastal Water Temperatures

สถานที่ อุณหภูมิ

Stations

Nearby Weather Stations

Station Location Temp ลมหนาว อุณหภูมิที่อากาศอาจจับตัวเป็นหยาดน้ำค้าง ความชื้น ลม Precip. Elev ปรับปรุงล่าสุด Type